createdAt,value
2022-09-05T00:00:18.039Z,15.64
2022-09-05T00:02:56.102Z,15.62
2022-09-05T00:06:08.203Z,15.63
2022-09-05T00:09:04.277Z,15.83
2022-09-05T00:11:49.575Z,15.87
2022-09-05T00:15:16.091Z,15.58
2022-09-05T00:21:31.580Z,15.58
2022-09-05T00:24:25.893Z,15.63
2022-09-05T00:24:42.730Z,15.58
2022-09-05T00:27:49.926Z,15.73
2022-09-05T00:31:07.720Z,15.80
2022-09-05T00:33:55.790Z,15.58
2022-09-05T00:36:54.891Z,15.32
2022-09-05T00:39:26.735Z,15.31
2022-09-05T00:41:59.297Z,15.31
2022-09-05T00:44:32.423Z,15.37
2022-09-05T00:47:29.712Z,15.51
2022-09-05T00:50:11.164Z,15.31
2022-09-05T00:53:06.662Z,15.15
2022-09-05T00:56:19.720Z,15.24
2022-09-05T00:59:24.444Z,15.26
2022-09-05T01:02:11.711Z,15.05
2022-09-05T01:04:53.780Z,15.04
2022-09-05T01:07:38.075Z,14.92
2022-09-05T01:10:23.695Z,14.83
2022-09-05T01:13:23.492Z,14.76
2022-09-05T01:16:23.303Z,15.09
2022-09-05T01:19:29.450Z,15.14
2022-09-05T01:22:18.572Z,15.14
2022-09-05T01:24:55.247Z,14.94
2022-09-05T01:28:05.442Z,14.97
2022-09-05T01:31:17.204Z,14.71
2022-09-05T01:33:57.333Z,14.75
2022-09-05T01:37:07.892Z,14.82
2022-09-05T01:40:26.354Z,14.72
2022-09-05T01:43:23.907Z,14.82
2022-09-05T01:45:59.325Z,14.54
2022-09-05T01:48:47.556Z,14.44
2022-09-05T01:51:32.654Z,14.44
2022-09-05T01:54:32.492Z,14.40
2022-09-05T01:57:24.428Z,14.29
2022-09-05T02:00:09.553Z,14.28
2022-09-05T02:03:15.884Z,14.37
2022-09-05T02:06:35.221Z,14.69
2022-09-05T02:09:33.912Z,14.53
2022-09-05T02:12:14.985Z,14.66
2022-09-05T02:15:02.539Z,14.76
2022-09-05T02:17:50.796Z,14.80
2022-09-05T02:20:41.065Z,14.53
2022-09-05T02:23:42.523Z,14.61
2022-09-05T02:26:23.463Z,14.57
2022-09-05T02:29:00.347Z,14.45
2022-09-05T02:31:40.092Z,14.56
2022-09-05T02:34:35.528Z,14.52
2022-09-05T02:37:55.910Z,14.43
2022-09-05T02:45:14.649Z,14.26
2022-09-05T02:45:19.349Z,14.39
2022-09-05T02:46:12.278Z,14.22
2022-09-05T02:49:04.831Z,14.18
2022-09-05T02:57:30.321Z,14.20
2022-09-05T02:57:41.945Z,14.06
2022-09-05T02:58:08.076Z,13.96
2022-09-05T03:01:04.419Z,13.85
2022-09-05T03:03:50.689Z,13.82
2022-09-05T03:06:35.523Z,13.89
2022-09-05T03:09:37.620Z,14.02
2022-09-05T03:12:49.891Z,14.25
2022-09-05T03:16:04.554Z,14.01
2022-09-05T03:19:00.293Z,13.96
2022-09-05T03:22:08.088Z,13.96
2022-09-05T03:25:15.246Z,14.05
2022-09-05T03:28:16.081Z,14.04
2022-09-05T03:31:22.841Z,13.95
2022-09-05T03:34:08.897Z,13.93
2022-09-05T03:37:08.446Z,13.87
2022-09-05T03:40:29.760Z,13.73
2022-09-05T03:43:22.053Z,13.83
2022-09-05T03:46:45.761Z,13.98
2022-09-05T03:52:10.467Z,13.75
2022-09-05T03:57:07.377Z,13.78
2022-09-05T03:57:23.791Z,13.88
2022-09-05T03:59:26.680Z,13.77
2022-09-05T04:03:35.849Z,13.80
2022-09-05T04:08:13.703Z,13.82
2022-09-05T04:08:32.475Z,13.75
2022-09-05T04:11:15.205Z,13.78
2022-09-05T04:13:56.648Z,13.98
2022-09-05T04:16:46.548Z,13.83
2022-09-05T04:19:20.440Z,13.70
2022-09-05T04:22:16.684Z,13.62
2022-09-05T04:25:07.369Z,13.57
2022-09-05T04:28:10.426Z,13.65
2022-09-05T04:30:40.637Z,13.78
2022-09-05T04:33:42.883Z,13.62
2022-09-05T04:36:44.144Z,13.62
2022-09-05T04:39:18.230Z,13.68
2022-09-05T04:42:29.970Z,13.82
2022-09-05T04:45:07.660Z,13.72
2022-09-05T04:47:50.751Z,13.63
2022-09-05T04:50:23.440Z,13.69
2022-09-05T04:53:10.953Z,13.74
2022-09-05T04:55:50.949Z,13.77
2022-09-05T04:59:09.019Z,13.88
2022-09-05T05:06:00.847Z,13.94
2022-09-05T05:06:08.725Z,13.96
2022-09-05T05:07:26.758Z,13.95
2022-09-05T05:10:55.435Z,14.03
2022-09-05T05:17:56.776Z,14.04
2022-09-05T05:18:14.686Z,14.06
2022-09-05T05:19:06.195Z,14.12
2022-09-05T05:21:36.888Z,14.07
2022-09-05T05:24:16.347Z,14.10
2022-09-05T05:27:05.281Z,14.22
2022-09-05T05:29:53.961Z,14.22
2022-09-05T05:32:45.173Z,14.41
2022-09-05T05:35:21.212Z,14.49
2022-09-05T05:38:09.701Z,14.41
2022-09-05T05:40:51.202Z,14.40
2022-09-05T05:43:33.592Z,14.24
2022-09-05T05:46:02.408Z,14.27
2022-09-05T05:48:39.820Z,14.32
2022-09-05T05:51:34.592Z,14.34
2022-09-05T05:54:36.101Z,14.37
2022-09-05T05:57:29.490Z,14.39
2022-09-05T06:00:08.192Z,14.48
2022-09-05T06:03:25.872Z,14.61
2022-09-05T06:06:28.804Z,14.71
2022-09-05T06:14:50.463Z,14.90
2022-09-05T06:14:59.311Z,14.97
2022-09-05T06:16:10.039Z,15.11
2022-09-05T06:19:11.854Z,15.20
2022-09-05T06:22:33.399Z,15.38
2022-09-05T06:25:51.102Z,15.50
2022-09-05T06:28:25.652Z,15.64
2022-09-05T06:31:27.639Z,15.73
2022-09-05T06:34:32.654Z,15.89
2022-09-05T06:37:58.553Z,16.11
2022-09-05T06:40:31.467Z,16.23
2022-09-05T06:43:15.977Z,16.25
2022-09-05T06:47:23.258Z,16.48
2022-09-05T06:49:28.523Z,16.62
2022-09-05T06:52:30.322Z,16.93
2022-09-05T06:55:57.629Z,17.07
2022-09-05T06:59:40.956Z,17.29
2022-09-05T07:02:58.486Z,17.49
2022-09-05T07:05:38.695Z,17.68
2022-09-05T07:09:12.515Z,17.70
2022-09-05T07:12:03.476Z,17.78
2022-09-05T07:14:55.448Z,17.89
2022-09-05T07:18:08.520Z,17.99
2022-09-05T07:21:16.269Z,18.02
2022-09-05T07:24:09.525Z,18.26
2022-09-05T07:26:53.657Z,18.38
2022-09-05T07:29:36.989Z,18.39
2022-09-05T07:32:09.101Z,18.44
2022-09-05T07:34:38.367Z,18.83
2022-09-05T07:37:40.038Z,18.90
2022-09-05T07:40:25.784Z,18.90
2022-09-05T07:43:18.921Z,18.96
2022-09-05T07:46:13.483Z,19.00
2022-09-05T07:48:47.675Z,19.31
2022-09-05T07:56:53.978Z,19.40
2022-09-05T07:57:00.666Z,19.43
2022-09-05T07:57:30.917Z,19.32
2022-09-05T08:00:25.883Z,19.68
2022-09-05T08:03:12.798Z,20.07
2022-09-05T08:05:48.123Z,20.07
2022-09-05T08:08:28.996Z,20.21
2022-09-05T08:11:24.359Z,20.54
2022-09-05T08:14:46.023Z,20.75
2022-09-05T08:17:26.459Z,20.83
2022-09-05T08:20:17.865Z,20.96
2022-09-05T08:23:22.926Z,21.06
2022-09-05T08:26:13.215Z,21.41
2022-09-05T08:29:09.094Z,21.58
2022-09-05T08:32:08.677Z,21.64
2022-09-05T08:35:07.233Z,21.58
2022-09-05T08:37:35.798Z,22.06
2022-09-05T08:40:15.944Z,21.89
2022-09-05T08:46:38.064Z,22.07
2022-09-05T08:46:48.244Z,22.47
2022-09-05T08:49:46.381Z,22.43
2022-09-05T08:52:20.576Z,22.08
2022-09-05T08:55:14.605Z,22.40
2022-09-05T08:57:45.989Z,23.05
2022-09-05T09:00:24.341Z,22.68
2022-09-05T09:03:11.936Z,22.19
2022-09-05T09:06:11.941Z,22.25
2022-09-05T09:09:06.942Z,22.70
2022-09-05T09:11:56.557Z,22.20
2022-09-05T09:14:40.528Z,23.13
2022-09-05T09:17:37.917Z,23.34
2022-09-05T09:20:09.713Z,23.64
2022-09-05T09:23:00.958Z,24.08
2022-09-05T09:25:40.013Z,24.22
2022-09-05T09:28:47.789Z,24.43
2022-09-05T09:31:40.047Z,24.34
2022-09-05T09:34:26.431Z,24.55
2022-09-05T09:37:35.590Z,24.56
2022-09-05T09:40:47.682Z,24.20
2022-09-05T09:43:53.224Z,23.83
2022-09-05T09:46:46.426Z,24.09
2022-09-05T09:49:22.748Z,23.92
2022-09-05T09:52:20.935Z,24.22
2022-09-05T09:55:02.070Z,25.57
2022-09-05T09:57:45.822Z,25.77
2022-09-05T10:00:21.410Z,25.12
2022-09-05T10:07:59.505Z,25.56
2022-09-05T10:10:39.192Z,25.73
2022-09-05T10:10:49.034Z,25.73
2022-09-05T10:12:53.367Z,26.34
2022-09-05T10:16:27.238Z,25.51
2022-09-05T10:19:16.266Z,26.11
2022-09-05T10:22:38.038Z,26.62
2022-09-05T10:26:09.944Z,26.47
2022-09-05T10:29:48.388Z,26.77
2022-09-05T10:35:18.285Z,27.37
2022-09-05T10:36:39.958Z,28.32
2022-09-05T10:39:39.673Z,28.08
2022-09-05T10:42:59.779Z,28.59
2022-09-05T10:46:01.161Z,27.36
2022-09-05T10:48:54.644Z,27.11
2022-09-05T10:52:17.940Z,27.72
2022-09-05T10:55:36.551Z,28.95
2022-09-05T11:00:30.611Z,28.41
2022-09-05T11:02:27.747Z,28.74
2022-09-05T11:05:24.568Z,29.44
2022-09-05T11:08:08.182Z,30.01
2022-09-05T11:10:37.939Z,29.10
2022-09-05T11:13:10.510Z,30.25
2022-09-05T11:16:04.521Z,29.69
2022-09-05T11:19:05.478Z,29.06
2022-09-05T11:22:13.769Z,29.73
2022-09-05T11:25:01.188Z,29.73
2022-09-05T11:27:41.280Z,29.60
2022-09-05T11:30:31.002Z,28.54
2022-09-05T11:38:43.961Z,28.46
2022-09-05T11:40:00.279Z,28.42
2022-09-05T11:40:31.184Z,29.62
2022-09-05T11:43:15.962Z,29.36
2022-09-05T11:46:19.516Z,29.72
2022-09-05T11:49:02.327Z,29.31
2022-09-05T11:51:49.436Z,29.76
2022-09-05T11:54:48.006Z,30.32
2022-09-05T11:58:43.873Z,30.54
2022-09-05T12:01:42.041Z,30.96
2022-09-05T12:04:08.114Z,31.19
2022-09-05T12:07:32.357Z,30.79
2022-09-05T12:10:46.140Z,30.98
2022-09-05T12:13:52.660Z,30.81
2022-09-05T12:17:34.740Z,31.44
2022-09-05T12:20:43.223Z,31.63
2022-09-05T12:23:47.583Z,31.41
2022-09-05T12:27:41.798Z,31.12
2022-09-05T12:29:38.734Z,30.59
2022-09-05T12:33:39.390Z,31.12
2022-09-05T12:36:13.011Z,31.67
2022-09-05T12:40:00.931Z,31.61
2022-09-05T12:41:44.425Z,31.65
2022-09-05T12:44:41.691Z,31.34
2022-09-05T12:47:20.097Z,31.01
2022-09-05T12:50:18.400Z,30.41
2022-09-05T12:52:52.204Z,31.45
2022-09-05T12:55:47.051Z,31.08
2022-09-05T13:02:58.598Z,31.66
2022-09-05T13:03:06.074Z,31.99
2022-09-05T13:04:32.271Z,31.28
2022-09-05T13:07:08.229Z,32.43
2022-09-05T13:10:00.641Z,31.97
2022-09-05T13:14:50.918Z,32.32
2022-09-05T13:15:40.313Z,32.27
2022-09-05T13:18:18.382Z,32.15
2022-09-05T13:21:08.599Z,32.59
2022-09-05T13:24:06.870Z,32.45
2022-09-05T13:27:05.766Z,32.22
2022-09-05T13:32:57.380Z,32.41
2022-09-05T13:37:56.661Z,32.30
2022-09-05T13:38:09.899Z,32.51
2022-09-05T13:39:13.197Z,32.66
2022-09-05T13:41:56.815Z,32.29
2022-09-05T13:44:27.517Z,32.77
2022-09-05T13:47:29.472Z,32.78
2022-09-05T13:50:20.028Z,32.26
2022-09-05T13:53:15.456Z,32.58
2022-09-05T13:55:54.873Z,32.73
2022-09-05T13:58:56.714Z,32.88
2022-09-05T14:01:39.604Z,32.93
2022-09-05T14:08:05.073Z,32.73
2022-09-05T14:10:57.581Z,32.83
2022-09-05T14:14:00.274Z,33.03
2022-09-05T14:16:49.868Z,32.71
2022-09-05T14:19:43.365Z,33.28
2022-09-05T14:22:46.140Z,32.70
2022-09-05T14:25:43.213Z,31.87
2022-09-05T14:28:40.914Z,31.90
2022-09-05T14:37:36.803Z,33.20
2022-09-05T14:37:41.283Z,32.68
2022-09-05T14:38:13.730Z,33.04
2022-09-05T14:41:11.853Z,33.74
2022-09-05T14:44:10.652Z,33.64
2022-09-05T14:47:32.412Z,33.36
2022-09-05T14:50:27.605Z,33.29
2022-09-05T14:57:23.260Z,33.28
2022-09-05T15:02:52.077Z,33.09
2022-09-05T15:02:52.810Z,33.22
2022-09-05T15:05:16.079Z,33.72
2022-09-05T15:07:44.949Z,33.96
2022-09-05T15:12:18.207Z,33.48
2022-09-05T15:13:25.722Z,33.09
2022-09-05T15:16:09.268Z,32.58
2022-09-05T15:18:46.638Z,33.35
2022-09-05T15:21:33.198Z,32.23
2022-09-05T15:24:14.896Z,32.65
2022-09-05T15:26:58.816Z,33.67
2022-09-05T15:29:34.386Z,32.69
2022-09-05T15:32:22.621Z,33.34
2022-09-05T15:34:55.439Z,32.48
2022-09-05T15:37:40.716Z,34.21
2022-09-05T15:40:21.916Z,33.16
2022-09-05T15:42:59.432Z,32.90
2022-09-05T15:45:38.415Z,32.88
2022-09-05T15:48:26.549Z,32.69
2022-09-05T15:51:17.242Z,33.30
2022-09-05T15:53:45.661Z,32.73
2022-09-05T15:56:15.811Z,33.07
2022-09-05T15:59:11.305Z,33.84
2022-09-05T16:01:59.601Z,33.99
2022-09-05T16:07:39.207Z,33.24
2022-09-05T16:10:36.896Z,33.35
2022-09-05T16:10:57.870Z,32.66
2022-09-05T16:13:52.293Z,33.58
2022-09-05T16:23:21.146Z,34.10
2022-09-05T16:23:30.261Z,31.91
2022-09-05T16:23:30.267Z,34.38
2022-09-05T16:25:29.807Z,32.06
2022-09-05T16:28:29.960Z,32.18
2022-09-05T16:31:17.471Z,32.86
2022-09-05T16:33:48.243Z,33.63
2022-09-05T16:36:36.806Z,32.84
2022-09-05T16:39:17.007Z,32.92
2022-09-05T16:42:09.474Z,32.45
2022-09-05T16:44:49.606Z,32.59
2022-09-05T16:47:36.476Z,32.85
2022-09-05T16:50:24.011Z,32.91
2022-09-05T16:52:54.270Z,31.61
2022-09-05T16:55:46.567Z,31.87
2022-09-05T16:58:44.237Z,32.06
2022-09-05T17:01:30.808Z,31.19
2022-09-05T17:05:03.395Z,32.23
2022-09-05T17:08:01.214Z,32.32
2022-09-05T17:10:42.513Z,32.23
2022-09-05T17:13:36.743Z,31.71
2022-09-05T17:16:09.661Z,31.55
2022-09-05T17:18:38.799Z,31.99
2022-09-05T17:21:28.443Z,31.57
2022-09-05T17:29:16.083Z,31.61
2022-09-05T17:29:31.925Z,31.78
2022-09-05T17:33:38.308Z,31.46
2022-09-05T17:36:40.993Z,31.03
2022-09-05T17:39:44.542Z,31.02
2022-09-05T17:42:32.697Z,30.84
2022-09-05T17:45:44.863Z,30.17
2022-09-05T17:48:16.607Z,30.05
2022-09-05T17:50:51.240Z,29.87
2022-09-05T17:53:26.090Z,29.59
2022-09-05T17:55:56.298Z,28.91
2022-09-05T17:58:41.209Z,28.42
2022-09-05T18:01:26.410Z,28.28
2022-09-05T18:04:15.957Z,28.06
2022-09-05T18:06:59.029Z,27.77
2022-09-05T18:09:40.347Z,27.41
2022-09-05T18:15:32.737Z,27.27
2022-09-05T18:18:02.741Z,27.05
2022-09-05T18:21:21.785Z,26.99
2022-09-05T18:24:12.012Z,26.86
2022-09-05T18:26:45.755Z,26.18
2022-09-05T18:29:28.686Z,25.90
2022-09-05T18:33:56.214Z,25.56
2022-09-05T18:35:54.420Z,25.77
2022-09-05T18:38:51.654Z,25.38
2022-09-05T18:41:27.818Z,25.05
2022-09-05T18:44:13.699Z,25.13
2022-09-05T18:46:52.568Z,24.91
2022-09-05T18:50:21.393Z,24.72
2022-09-05T18:52:33.334Z,25.02
2022-09-05T18:56:09.902Z,24.81
2022-09-05T18:58:09.448Z,24.90
2022-09-05T19:00:44.473Z,24.79
2022-09-05T19:03:30.458Z,24.41
2022-09-05T19:06:35.800Z,23.90
2022-09-05T19:09:14.576Z,23.27
2022-09-05T19:12:01.608Z,23.54
2022-09-05T19:14:53.795Z,23.59
2022-09-05T19:17:39.352Z,23.39
2022-09-05T19:20:31.633Z,22.93
2022-09-05T19:23:11.120Z,22.65
2022-09-05T19:25:54.564Z,22.97
2022-09-05T19:36:44.645Z,23.04
2022-09-05T19:36:57.699Z,22.75
2022-09-05T19:37:22.217Z,22.52
2022-09-05T19:37:29.716Z,22.32
2022-09-05T19:44:50.328Z,22.19
2022-09-05T19:47:43.283Z,22.03
2022-09-05T19:47:57.819Z,21.98
2022-09-05T19:48:34.968Z,21.99
2022-09-05T19:51:17.871Z,21.85
2022-09-05T19:54:05.557Z,21.52
2022-09-05T19:56:46.678Z,21.37
2022-09-05T19:59:38.280Z,21.40
2022-09-05T20:02:51.432Z,21.45
2022-09-05T20:05:22.274Z,21.14
2022-09-05T20:07:55.025Z,21.35
2022-09-05T20:10:32.374Z,21.37
2022-09-05T20:13:20.010Z,21.15
2022-09-05T20:15:48.597Z,21.18
2022-09-05T20:18:40.653Z,21.03
2022-09-05T20:21:28.501Z,20.91
2022-09-05T20:23:59.854Z,20.65
2022-09-05T20:26:30.772Z,20.54
2022-09-05T20:29:02.545Z,20.33
2022-09-05T20:31:34.337Z,20.47
2022-09-05T20:35:42.101Z,20.69
2022-09-05T20:43:16.951Z,20.89
2022-09-05T20:43:18.015Z,20.90
2022-09-05T20:43:25.125Z,21.01
2022-09-05T20:46:00.808Z,20.64
2022-09-05T20:54:10.095Z,20.66
2022-09-05T20:54:18.858Z,20.81
2022-09-05T20:54:34.897Z,20.36
2022-09-05T20:57:28.816Z,20.07
2022-09-05T21:00:14.317Z,20.17
2022-09-05T21:02:58.725Z,19.92
2022-09-05T21:05:35.620Z,19.70
2022-09-05T21:08:34.636Z,19.74
2022-09-05T21:11:05.894Z,19.81
2022-09-05T21:13:52.781Z,19.67
2022-09-05T21:16:28.202Z,19.70
2022-09-05T21:18:56.250Z,19.77
2022-09-05T21:21:30.854Z,19.59
2022-09-05T21:24:16.744Z,19.49
2022-09-05T21:26:48.548Z,19.60
2022-09-05T21:29:25.115Z,19.81
2022-09-05T21:32:07.913Z,19.61
2022-09-05T21:34:49.561Z,19.63
2022-09-05T21:37:19.249Z,19.84
2022-09-05T21:39:59.705Z,19.70
2022-09-05T21:42:39.133Z,19.50
2022-09-05T21:47:47.785Z,19.67
2022-09-05T21:48:15.213Z,19.50
2022-09-05T21:50:52.192Z,19.27
2022-09-05T21:56:41.551Z,19.10
2022-09-05T21:59:28.595Z,19.04
2022-09-05T22:02:08.431Z,19.06
2022-09-05T22:04:41.582Z,18.95
2022-09-05T22:07:32.523Z,18.95
2022-09-05T22:10:04.334Z,19.06
2022-09-05T22:12:39.390Z,18.86
2022-09-05T22:15:27.168Z,18.76
2022-09-05T22:18:16.618Z,18.75
2022-09-05T22:20:57.227Z,18.44
2022-09-05T22:23:40.741Z,18.73
2022-09-05T22:26:09.046Z,18.84
2022-09-05T22:28:38.905Z,18.80
2022-09-05T22:31:07.889Z,18.79
2022-09-05T22:33:36.601Z,18.76
2022-09-05T22:36:05.077Z,18.70
2022-09-05T22:38:33.488Z,18.55
2022-09-05T22:41:06.052Z,18.45
2022-09-05T22:43:34.469Z,18.49
2022-09-05T22:46:03.746Z,18.77
2022-09-05T22:48:31.912Z,18.94
2022-09-05T22:50:59.883Z,18.95
2022-09-05T22:53:27.709Z,18.84
2022-09-05T22:56:00.182Z,18.89
2022-09-05T22:58:28.866Z,18.88
2022-09-05T23:00:57.062Z,18.92
2022-09-05T23:03:25.013Z,18.92
2022-09-05T23:05:53.281Z,19.06
2022-09-05T23:08:21.235Z,19.07
2022-09-05T23:10:49.178Z,19.14
2022-09-05T23:13:17.090Z,19.04
2022-09-05T23:15:45.031Z,19.04
2022-09-05T23:18:13.013Z,19.11
2022-09-05T23:20:40.938Z,19.01
2022-09-05T23:23:09.014Z,18.52
2022-09-05T23:25:37.547Z,18.62
2022-09-05T23:28:10.141Z,18.67
2022-09-05T23:30:39.539Z,18.67
2022-09-05T23:33:09.672Z,18.68
2022-09-05T23:35:38.080Z,18.59
2022-09-05T23:38:11.278Z,18.66
2022-09-05T23:40:39.686Z,18.72
2022-09-05T23:43:08.470Z,18.81
2022-09-05T23:45:36.446Z,18.59
2022-09-05T23:48:04.763Z,18.35
2022-09-05T23:50:32.989Z,18.43
2022-09-05T23:53:04.795Z,18.37
2022-09-05T23:55:32.925Z,18.40
2022-09-05T23:58:00.981Z,18.23
